Time;durP1;ratioP1;P1;durP2;ratioP2;P2;SDS_P1;SDS_P2;PMS_P1;PMS_P2;Temp;Humidity;BMP_temperature;BMP_pressure;BME280_temperature;BME280_humidity;BME280_pressure;Samples;Min_cycle;Max_cycle;Signal;HPM_P1;HPM_P2
2022/03/11 00:02:03;;;;;;;17.65;12.00;;;5.00;99.90;;;;;;5068017;28;20052;-70
2022/03/11 00:04:29;;;;;;;14.32;12.40;;;4.90;99.90;;;;;;5055096;28;20036;-70
2022/03/11 00:06:55;;;;;;;14.23;12.57;;;4.80;99.90;;;;;;5059076;28;20035;-71
2022/03/11 00:09:20;;;;;;;17.08;12.07;;;4.80;99.90;;;;;;5072132;28;20063;-71
2022/03/11 00:11:46;;;;;;;14.98;12.52;;;4.80;99.90;;;;;;5050132;28;20113;-70
2022/03/11 00:14:11;;;;;;;16.88;12.27;;;4.70;99.90;;;;;;5068468;28;20033;-70
2022/03/11 00:16:37;;;;;;;17.45;12.93;;;4.70;99.90;;;;;;5068851;28;20110;-70
2022/03/11 00:19:03;;;;;;;16.27;12.27;;;4.60;99.90;;;;;;5047397;28;20044;-70
2022/03/11 00:21:29;;;;;;;17.27;14.10;;;4.60;99.90;;;;;;5047635;28;20041;-70
2022/03/11 00:23:54;;;;;;;16.10;13.55;;;4.50;99.90;;;;;;5037492;28;20090;-70
2022/03/11 00:26:21;;;;;;;21.60;13.13;;;4.40;99.90;;;;;;5050284;28;20117;-70
2022/03/11 00:28:47;;;;;;;17.63;12.75;;;4.40;99.90;;;;;;5049018;28;20083;-72
2022/03/11 00:31:12;;;;;;;16.70;13.57;;;4.40;99.90;;;;;;5037564;28;20043;-70
2022/03/11 00:33:38;;;;;;;21.17;14.27;;;4.30;99.90;;;;;;5052651;28;20038;-71
2022/03/11 00:36:04;;;;;;;15.05;12.95;;;4.30;99.90;;;;;;5067597;28;20098;-71
2022/03/11 00:38:30;;;;;;;16.98;13.20;;;4.20;99.90;;;;;;5065173;28;21831;-70
2022/03/11 00:40:58;;;;;;;17.67;12.68;;;4.20;99.90;;;;;;5051830;28;20044;-70
2022/03/11 00:43:24;;;;;;;16.60;13.32;;;4.20;99.90;;;;;;5049219;28;20029;-71
2022/03/11 00:45:50;;;;;;;17.58;13.98;;;4.10;99.90;;;;;;5052525;28;20052;-70
2022/03/11 00:48:16;;;;;;;17.15;13.77;;;4.10;99.90;;;;;;5054965;28;20052;-71
2022/03/11 00:50:42;;;;;;;17.23;13.35;;;4.10;99.90;;;;;;5050953;28;20055;-68
2022/03/11 00:53:07;;;;;;;18.00;13.07;;;4.00;99.90;;;;;;5046158;28;20532;-68
2022/03/11 00:55:33;;;;;;;17.55;13.32;;;4.00;99.90;;;;;;5051182;28;20065;-71
2022/03/11 00:57:59;;;;;;;15.88;13.05;;;4.00;99.90;;;;;;5049647;28;20044;-70
2022/03/11 01:00:24;;;;;;;20.38;12.95;;;3.90;99.90;;;;;;5032291;28;20042;-71
2022/03/11 01:02:50;;;;;;;16.27;11.98;;;3.90;99.90;;;;;;5051345;28;20037;-71
2022/03/11 01:05:16;;;;;;;18.65;12.93;;;3.90;99.90;;;;;;5052910;28;20051;-71
2022/03/11 01:07:42;;;;;;;16.38;12.50;;;3.90;99.90;;;;;;5050057;28;20053;-71
2022/03/11 01:10:08;;;;;;;15.82;12.38;;;3.90;99.90;;;;;;5066385;28;20041;-71
2022/03/11 01:12:34;;;;;;;15.77;12.60;;;3.80;99.90;;;;;;5068437;28;20044;-71
2022/03/11 01:15:00;;;;;;;14.63;11.90;;;3.80;99.90;;;;;;5048511;28;20127;-71
2022/03/11 01:17:26;;;;;;;16.27;13.07;;;3.80;99.90;;;;;;5034126;28;20119;-71
2022/03/11 01:19:53;;;;;;;16.65;11.93;;;3.80;99.90;;;;;;5040202;28;20071;-70
2022/03/11 01:22:19;;;;;;;17.55;11.70;;;3.80;99.90;;;;;;5053810;28;20045;-71
2022/03/11 01:24:44;;;;;;;15.50;12.05;;;3.80;99.90;;;;;;5049559;28;20045;-71
2022/03/11 01:27:10;;;;;;;13.77;10.93;;;3.90;99.90;;;;;;5050231;28;20064;-71
2022/03/11 01:29:36;;;;;;;15.60;11.90;;;3.90;99.90;;;;;;5049222;28;20093;-71
2022/03/11 01:32:01;;;;;;;19.83;12.00;;;3.80;99.90;;;;;;5048532;28;20135;-72
2022/03/11 01:34:27;;;;;;;16.10;12.00;;;3.80;99.90;;;;;;5050364;28;20101;-70
2022/03/11 01:36:53;;;;;;;13.50;10.82;;;3.80;99.90;;;;;;5032611;28;20119;-70
2022/03/11 01:39:18;;;;;;;15.00;11.93;;;3.80;99.90;;;;;;5067057;28;20044;-70
2022/03/11 01:41:44;;;;;;;14.63;10.93;;;3.80;99.90;;;;;;5033527;28;20079;-71
2022/03/11 01:44:10;;;;;;;16.95;10.82;;;3.70;99.90;;;;;;5051288;28;20037;-69
2022/03/11 01:46:37;;;;;;;18.05;11.05;;;3.70;99.90;;;;;;5047980;28;20058;-71
2022/03/11 01:49:06;;;;;;;15.77;10.88;;;3.60;99.90;;;;;;5049530;28;20446;-71
2022/03/11 01:51:33;;;;;;;18.75;11.05;;;3.70;99.90;;;;;;5050765;28;20079;-71
2022/03/11 01:53:59;;;;;;;17.42;11.75;;;3.70;99.90;;;;;;5032723;28;20086;-70
2022/03/11 01:56:26;;;;;;;15.15;10.55;;;3.60;99.90;;;;;;5066984;28;20476;-71
2022/03/11 01:58:55;;;;;;;15.10;11.13;;;3.60;99.90;;;;;;5071123;28;20036;-71
2022/03/11 02:01:22;;;;;;;15.23;10.75;;;3.50;99.90;;;;;;5052733;28;20685;-71
2022/03/11 02:03:48;;;;;;;13.60;10.38;;;3.50;99.90;;;;;;5019177;28;20036;-71
2022/03/11 02:06:14;;;;;;;16.15;10.45;;;3.50;99.90;;;;;;5047254;28;20072;-71
2022/03/11 02:08:41;;;;;;;14.20;10.68;;;3.40;99.90;;;;;;5044147;28;20037;-71
2022/03/11 02:11:07;;;;;;;14.23;10.50;;;3.40;99.90;;;;;;5049726;28;20384;-71
2022/03/11 02:13:42;;;;;;;15.93;11.27;;;3.40;99.90;;;;;;5052208;28;20040;-70
2022/03/11 02:16:10;;;;;;;14.65;10.40;;;3.50;99.90;;;;;;5069323;28;20048;-71
2022/03/11 02:18:35;;;;;;;13.80;10.90;;;3.60;99.90;;;;;;5067994;28;20040;-69
2022/03/11 02:21:01;;;;;;;15.65;10.95;;;3.60;99.90;;;;;;5058211;28;20028;-71
2022/03/11 02:23:28;;;;;;;16.92;11.38;;;3.60;99.90;;;;;;5066402;28;20040;-71
2022/03/11 02:25:54;;;;;;;14.80;10.85;;;3.60;99.90;;;;;;5049244;28;20147;-69
2022/03/11 02:28:20;;;;;;;13.90;10.07;;;3.70;99.90;;;;;;5050405;28;20563;-71
2022/03/11 02:30:46;;;;;;;18.23;11.70;;;3.60;99.90;;;;;;5054982;28;20044;-70
2022/03/11 02:33:11;;;;;;;13.38;10.65;;;3.60;99.90;;;;;;5027806;28;20044;-71
2022/03/11 02:35:37;;;;;;;15.27;11.30;;;3.60;99.90;;;;;;5055675;28;20082;-70
2022/03/11 02:38:03;;;;;;;16.40;11.32;;;3.70;99.90;;;;;;5023158;28;20091;-70
2022/03/11 02:40:29;;;;;;;16.80;11.52;;;3.60;99.90;;;;;;5072002;28;20091;-73
2022/03/11 02:42:54;;;;;;;16.38;11.45;;;3.70;99.90;;;;;;5051232;28;20032;-71
2022/03/11 02:45:20;;;;;;;16.10;11.75;;;3.60;99.90;;;;;;5051655;28;20059;-71
2022/03/11 02:47:45;;;;;;;17.70;11.73;;;3.70;99.90;;;;;;5061164;28;20040;-70
2022/03/11 02:50:11;;;;;;;16.73;12.18;;;3.70;99.90;;;;;;5053970;28;20040;-71
2022/03/11 02:52:37;;;;;;;17.73;11.80;;;3.70;99.90;;;;;;5052651;28;20032;-71
2022/03/11 02:55:02;;;;;;;16.33;12.10;;;3.70;99.90;;;;;;5036023;28;20051;-69
2022/03/11 02:57:28;;;;;;;18.67;12.32;;;3.70;99.90;;;;;;5055061;28;20041;-71
2022/03/11 02:59:54;;;;;;;17.20;12.13;;;3.70;99.90;;;;;;5055063;28;20113;-71
2022/03/11 03:02:19;;;;;;;16.95;12.35;;;3.60;99.90;;;;;;5051306;28;20048;-69
2022/03/11 03:04:45;;;;;;;16.75;12.07;;;3.60;99.90;;;;;;5048593;28;20035;-71
2022/03/11 03:07:11;;;;;;;17.55;12.80;;;3.60;99.90;;;;;;5069631;28;20063;-71
2022/03/11 03:09:41;;;;;;;17.75;12.65;;;3.50;99.90;;;;;;5053506;28;20036;-71
2022/03/11 03:12:11;;;;;;;21.35;12.35;;;3.50;99.90;;;;;;5070625;28;20064;-71
2022/03/11 03:14:37;;;;;;;16.98;13.00;;;3.50;99.90;;;;;;5057362;28;20036;-71
2022/03/11 03:17:05;;;;;;;17.50;13.10;;;3.60;99.90;;;;;;5052133;28;20036;-71
2022/03/11 03:19:30;;;;;;;16.98;13.13;;;3.50;99.90;;;;;;5068500;28;20115;-71
2022/03/11 03:21:56;;;;;;;17.75;13.25;;;3.50;99.90;;;;;;5053805;28;20500;-70
2022/03/11 03:24:22;;;;;;;19.73;13.73;;;3.60;99.90;;;;;;5039285;28;20040;-71
2022/03/11 03:26:48;;;;;;;22.10;14.10;;;3.50;99.90;;;;;;5054058;28;20116;-71
2022/03/11 03:29:13;;;;;;;20.42;13.23;;;3.50;99.90;;;;;;5052513;28;20055;-70
2022/03/11 03:31:39;;;;;;;18.92;13.77;;;3.50;99.90;;;;;;5041233;28;20660;-71
2022/03/11 03:34:04;;;;;;;20.65;14.00;;;3.50;99.90;;;;;;5073092;28;20407;-71
2022/03/11 03:36:30;;;;;;;20.92;13.90;;;3.50;99.90;;;;;;5072168;28;20032;-71
2022/03/11 03:38:56;;;;;;;22.20;13.30;;;3.50;99.90;;;;;;5055882;28;20516;-71
2022/03/11 03:41:21;;;;;;;19.63;14.20;;;3.40;99.90;;;;;;5053965;28;20042;-70
2022/03/11 03:43:47;;;;;;;19.10;13.93;;;3.40;99.90;;;;;;5073480;28;20102;-71
2022/03/11 03:46:13;;;;;;;21.40;14.80;;;3.40;99.90;;;;;;5057731;28;20047;-71
2022/03/11 03:48:38;;;;;;;20.00;14.35;;;3.30;99.90;;;;;;5054751;28;20055;-71
2022/03/11 03:51:05;;;;;;;23.23;14.93;;;3.40;99.90;;;;;;5049288;28;20051;-71
2022/03/11 03:53:30;;;;;;;20.02;14.55;;;3.40;99.90;;;;;;5054271;28;20045;-70
2022/03/11 03:55:56;;;;;;;24.35;15.68;;;3.40;99.90;;;;;;5023879;28;20048;-69
2022/03/11 03:58:21;;;;;;;19.13;14.75;;;3.30;99.90;;;;;;5054789;28;20062;-70
2022/03/11 04:00:47;;;;;;;19.60;14.93;;;3.30;99.90;;;;;;5053829;28;20044;-71
2022/03/11 04:03:13;;;;;;;18.95;14.43;;;3.30;99.90;;;;;;5054055;28;20047;-71
2022/03/11 04:05:38;;;;;;;21.23;15.07;;;3.30;99.90;;;;;;5067627;28;20078;-71
2022/03/11 04:08:04;;;;;;;21.67;15.50;;;3.30;99.90;;;;;;5053270;28;20038;-71
2022/03/11 04:10:30;;;;;;;19.13;14.60;;;3.20;99.90;;;;;;5053483;28;20400;-71
2022/03/11 04:12:57;;;;;;;20.85;15.60;;;3.20;99.90;;;;;;5070093;28;20044;-71
2022/03/11 04:15:22;;;;;;;21.85;15.38;;;3.20;99.90;;;;;;5052218;28;20105;-71
2022/03/11 04:17:48;;;;;;;20.67;15.27;;;3.20;99.90;;;;;;5049272;28;20490;-70
2022/03/11 04:20:14;;;;;;;21.85;15.77;;;3.20;99.90;;;;;;5054267;28;20086;-71
2022/03/11 04:22:44;;;;;;;22.83;15.77;;;3.20;99.90;;;;;;5073949;28;20044;-71
2022/03/11 04:25:14;;;;;;;24.88;16.83;;;3.20;99.90;;;;;;5053790;28;20044;-70
2022/03/11 04:27:40;;;;;;;19.90;15.52;;;3.20;99.90;;;;;;5048214;28;20400;-70
2022/03/11 04:30:06;;;;;;;22.38;15.65;;;3.10;99.90;;;;;;5049855;28;20397;-70
2022/03/11 04:32:32;;;;;;;23.08;16.20;;;3.10;99.90;;;;;;5051647;28;20118;-71
2022/03/11 04:35:00;;;;;;;24.40;16.85;;;3.10;99.90;;;;;;5065931;28;20102;-69
2022/03/11 04:37:26;;;;;;;24.75;16.67;;;3.00;99.90;;;;;;5047262;28;20039;-71
2022/03/11 04:39:51;;;;;;;24.98;17.63;;;3.00;99.90;;;;;;5055189;28;20046;-71
2022/03/11 04:42:17;;;;;;;23.90;17.73;;;3.00;99.90;;;;;;5050343;28;20700;-70
2022/03/11 04:44:43;;;;;;;24.75;17.05;;;3.00;99.90;;;;;;5053723;28;20440;-69
2022/03/11 04:47:08;;;;;;;24.25;17.67;;;3.00;99.90;;;;;;5049329;28;20120;-71
2022/03/11 04:49:34;;;;;;;27.15;17.05;;;3.10;99.90;;;;;;5050633;28;20466;-72
2022/03/11 04:52:00;;;;;;;27.33;17.67;;;3.00;99.90;;;;;;5039353;28;20504;-71
2022/03/11 04:54:25;;;;;;;22.05;16.77;;;3.00;99.90;;;;;;5049622;28;20068;-71
2022/03/11 04:56:51;;;;;;;26.48;17.73;;;2.90;99.90;;;;;;5050605;28;20454;-69
2022/03/11 04:59:17;;;;;;;24.30;17.88;;;3.00;99.90;;;;;;5053670;28;20484;-71
2022/03/11 05:01:42;;;;;;;25.45;18.10;;;3.00;99.90;;;;;;5052563;28;20122;-70
2022/03/11 05:04:08;;;;;;;26.65;18.60;;;3.00;99.90;;;;;;5035392;28;20496;-71
2022/03/11 05:06:34;;;;;;;26.33;17.67;;;3.00;99.90;;;;;;5044385;28;20044;-69
2022/03/11 05:08:59;;;;;;;26.35;17.83;;;3.00;99.90;;;;;;5033847;28;20492;-71
2022/03/11 05:11:25;;;;;;;25.80;18.63;;;2.90;99.90;;;;;;5054106;28;20039;-71
2022/03/11 05:13:51;;;;;;;28.20;18.45;;;2.90;99.90;;;;;;5065901;28;20037;-70
2022/03/11 05:16:16;;;;;;;26.98;19.02;;;2.80;99.90;;;;;;5022677;28;20044;-69
2022/03/11 05:18:42;;;;;;;27.23;18.27;;;2.70;99.90;;;;;;5049926;28;20471;-71
2022/03/11 05:21:08;;;;;;;29.33;19.33;;;2.80;99.90;;;;;;5049994;28;20075;-71
2022/03/11 05:23:33;;;;;;;25.20;18.73;;;2.80;99.90;;;;;;5051084;28;20630;-70
2022/03/11 05:25:59;;;;;;;27.15;19.17;;;2.80;99.90;;;;;;5033323;28;20040;-71
2022/03/11 05:28:25;;;;;;;25.17;19.38;;;2.80;99.90;;;;;;5018993;28;20499;-71
2022/03/11 05:30:51;;;;;;;27.33;19.38;;;2.70;99.90;;;;;;5047852;28;20108;-71
2022/03/11 05:33:16;;;;;;;27.08;19.60;;;2.70;99.90;;;;;;5065851;28;20650;-71
2022/03/11 05:35:42;;;;;;;29.30;19.67;;;2.70;99.90;;;;;;5051022;28;21891;-70
2022/03/11 05:38:08;;;;;;;29.50;19.90;;;2.60;99.90;;;;;;5049799;28;20432;-70
2022/03/11 05:40:34;;;;;;;28.55;20.77;;;2.60;99.90;;;;;;5050587;28;20491;-70
2022/03/11 05:43:00;;;;;;;26.60;20.23;;;2.60;99.90;;;;;;5049646;28;20029;-71
2022/03/11 05:45:25;;;;;;;27.80;19.80;;;2.60;99.90;;;;;;5048642;28;20559;-70
2022/03/11 05:47:51;;;;;;;28.55;20.15;;;2.60;99.90;;;;;;5050808;28;20496;-71
2022/03/11 05:50:17;;;;;;;27.83;20.38;;;2.60;99.90;;;;;;5048951;28;20044;-71
2022/03/11 05:52:43;;;;;;;32.20;20.98;;;2.60;99.90;;;;;;5052260;28;20387;-70
2022/03/11 05:55:09;;;;;;;30.65;20.77;;;2.60;99.90;;;;;;5049800;28;22550;-71
2022/03/11 05:57:35;;;;;;;29.77;20.58;;;2.60;99.90;;;;;;5049361;28;20438;-71
2022/03/11 06:00:05;;;;;;;32.33;22.08;;;2.50;99.90;;;;;;5051429;28;20033;-71
2022/03/11 06:02:31;;;;;;;29.73;20.48;;;2.50;99.90;;;;;;5053738;28;20055;-70
2022/03/11 06:04:56;;;;;;;30.92;20.63;;;2.50;99.90;;;;;;5018407;28;20141;-71
2022/03/11 06:07:22;;;;;;;31.83;21.23;;;2.50;99.90;;;;;;5048207;28;20048;-72
2022/03/11 06:09:47;;;;;;;34.88;21.50;;;2.50;99.90;;;;;;5043655;28;20045;-71
2022/03/11 06:12:14;;;;;;;32.00;21.25;;;2.40;99.90;;;;;;5050880;28;20056;-70
2022/03/11 06:14:39;;;;;;;33.03;21.25;;;2.40;99.90;;;;;;5048347;28;20040;-70
2022/03/11 06:17:05;;;;;;;30.42;21.77;;;2.40;99.90;;;;;;5049798;28;20103;-71
2022/03/11 06:19:31;;;;;;;34.40;21.15;;;2.50;99.90;;;;;;5051215;28;20036;-69
2022/03/11 06:21:57;;;;;;;33.95;21.88;;;2.50;99.90;;;;;;5047088;28;20036;-70
2022/03/11 06:24:24;;;;;;;30.58;21.92;;;2.50;99.90;;;;;;5046010;28;20082;-71
2022/03/11 06:26:49;;;;;;;31.20;22.23;;;2.50;99.90;;;;;;5064539;28;20044;-71
2022/03/11 06:29:15;;;;;;;32.78;22.38;;;2.50;99.90;;;;;;5046570;28;20048;-71
2022/03/11 06:31:41;;;;;;;30.27;21.48;;;2.50;99.90;;;;;;5062233;28;20044;-71
2022/03/11 06:34:06;;;;;;;31.70;21.70;;;2.50;99.90;;;;;;5047935;28;20044;-71
2022/03/11 06:36:34;;;;;;;30.60;21.15;;;2.50;99.90;;;;;;5030086;28;20068;-72
2022/03/11 06:39:00;;;;;;;29.52;21.02;;;2.50;99.90;;;;;;5045121;28;20052;-71
2022/03/11 06:41:26;;;;;;;30.60;21.38;;;2.60;99.90;;;;;;5044616;28;20085;-71
2022/03/11 06:43:52;;;;;;;30.20;20.98;;;2.60;99.90;;;;;;5046603;28;20084;-71
2022/03/11 06:46:17;;;;;;;29.38;21.10;;;2.70;99.90;;;;;;5050238;28;20102;-71
2022/03/11 06:48:43;;;;;;;31.70;21.27;;;2.60;99.90;;;;;;5036637;28;20035;-69
2022/03/11 06:51:09;;;;;;;32.35;22.48;;;2.70;99.90;;;;;;5045838;28;20113;-73
2022/03/11 06:53:36;;;;;;;31.23;22.58;;;2.70;99.90;;;;;;5032870;28;20214;-71
2022/03/11 06:56:01;;;;;;;30.58;21.70;;;2.70;99.90;;;;;;5046838;28;20037;-73
2022/03/11 06:58:28;;;;;;;33.08;22.60;;;2.70;99.90;;;;;;5029374;28;20039;-71
2022/03/11 07:00:53;;;;;;;31.17;21.35;;;2.60;99.90;;;;;;5066554;28;20040;-73
2022/03/11 07:03:19;;;;;;;31.85;21.15;;;2.70;99.90;;;;;;5032199;28;20036;-71
2022/03/11 07:05:45;;;;;;;34.45;22.27;;;2.70;99.90;;;;;;5050810;28;20049;-71
2022/03/11 07:08:12;;;;;;;30.45;21.33;;;2.70;99.90;;;;;;5070492;28;20520;-71
2022/03/11 07:10:37;;;;;;;31.48;21.33;;;2.80;99.90;;;;;;5050112;28;20105;-71
2022/03/11 07:13:12;;;;;;;30.30;20.65;;;2.80;99.90;;;;;;5045611;28;20033;-71
2022/03/11 07:15:38;;;;;;;30.92;20.60;;;2.90;99.90;;;;;;5033662;28;20047;-71
2022/03/11 07:18:03;;;;;;;30.52;21.30;;;2.90;99.90;;;;;;5049835;28;20416;-71
2022/03/11 07:20:29;;;;;;;29.88;22.38;;;2.90;99.90;;;;;;5052467;28;20071;-70
2022/03/11 07:22:55;;;;;;;30.13;20.52;;;3.00;99.90;;;;;;5053790;28;20110;-72
2022/03/11 07:25:20;;;;;;;31.40;21.77;;;3.10;99.90;;;;;;5051028;28;20044;-69
2022/03/11 07:27:48;;;;;;;26.55;19.90;;;3.20;99.90;;;;;;5050079;28;20054;-70
2022/03/11 07:30:14;;;;;;;28.02;20.95;;;3.20;99.90;;;;;;5051829;28;20044;-69
2022/03/11 07:32:40;;;;;;;28.33;21.35;;;3.30;99.90;;;;;;5037312;28;20037;-70
2022/03/11 07:35:07;;;;;;;29.92;20.55;;;3.40;99.90;;;;;;5053707;28;20045;-70
2022/03/11 07:37:33;;;;;;;28.55;20.92;;;3.50;99.90;;;;;;5034113;28;20488;-69
2022/03/11 07:39:58;;;;;;;29.73;20.63;;;3.50;99.90;;;;;;5057752;28;20060;-71
2022/03/11 07:42:24;;;;;;;27.08;20.27;;;3.60;99.90;;;;;;5069408;28;20044;-71
2022/03/11 07:44:50;;;;;;;29.30;20.92;;;3.70;99.90;;;;;;5073575;28;20111;-69
2022/03/11 07:47:16;;;;;;;30.95;21.63;;;3.80;99.90;;;;;;5058332;28;20040;-72
2022/03/11 07:49:42;;;;;;;29.63;20.52;;;4.00;99.90;;;;;;5055552;28;20041;-72
2022/03/11 07:52:15;;;;;;;28.88;20.13;;;4.10;99.90;;;;;;5055069;28;20059;-71
2022/03/11 07:54:44;;;;;;;31.65;20.60;;;4.10;99.90;;;;;;5048767;28;20119;-71
2022/03/11 07:57:10;;;;;;;28.38;20.02;;;4.30;99.90;;;;;;5054607;28;20036;-71
2022/03/11 07:59:37;;;;;;;29.58;20.48;;;4.30;99.90;;;;;;5055873;28;20122;-71
2022/03/11 08:02:03;;;;;;;29.13;21.38;;;4.40;99.90;;;;;;5053442;28;20107;-71
2022/03/11 08:04:29;;;;;;;29.38;19.73;;;4.60;99.90;;;;;;5054369;28;20041;-71
2022/03/11 08:06:55;;;;;;;27.52;20.00;;;4.60;99.90;;;;;;5055094;28;20094;-71
2022/03/11 08:09:21;;;;;;;29.02;19.98;;;4.70;99.90;;;;;;5054796;28;20048;-71
2022/03/11 08:11:47;;;;;;;27.15;19.23;;;4.80;99.90;;;;;;5071504;28;20047;-71
2022/03/11 08:14:13;;;;;;;30.00;20.05;;;4.90;99.90;;;;;;5061302;28;20051;-71
2022/03/11 08:16:40;;;;;;;28.75;19.33;;;4.90;99.90;;;;;;5041398;28;20067;-70
2022/03/11 08:19:07;;;;;;;27.77;19.85;;;5.00;99.90;;;;;;5047850;28;20075;-70
2022/03/11 08:21:33;;;;;;;29.83;20.15;;;5.10;99.90;;;;;;5058001;28;20040;-69
2022/03/11 08:23:58;;;;;;;28.33;19.45;;;5.20;99.90;;;;;;5040377;28;20037;-71
2022/03/11 08:26:26;;;;;;;26.50;19.48;;;5.30;99.90;;;;;;5073787;28;20044;-71
2022/03/11 08:28:52;;;;;;;27.65;20.83;;;5.40;99.90;;;;;;5053878;28;20033;-71
2022/03/11 08:31:18;;;;;;;26.25;18.88;;;5.50;99.90;;;;;;5058833;28;20048;-71
2022/03/11 08:33:43;;;;;;;26.70;19.35;;;5.60;99.90;;;;;;5058602;28;20046;-69
2022/03/11 08:36:09;;;;;;;32.08;19.83;;;5.70;99.90;;;;;;5056011;28;20125;-71
2022/03/11 08:38:35;;;;;;;25.40;18.65;;;5.80;99.90;;;;;;5037836;28;20094;-71
2022/03/11 08:41:04;;;;;;;26.60;19.30;;;5.90;99.90;;;;;;5055827;28;20040;-68
2022/03/11 08:43:30;;;;;;;32.25;19.63;;;6.00;99.90;;;;;;5038465;28;20552;-70
2022/03/11 08:45:55;;;;;;;26.15;18.63;;;6.00;99.90;;;;;;5055104;28;20131;-70
2022/03/11 08:48:21;;;;;;;25.00;19.38;;;6.20;99.90;;;;;;5069696;28;20047;-71
2022/03/11 08:50:47;;;;;;;25.45;18.85;;;6.20;99.90;;;;;;5050961;28;20053;-71
2022/03/11 08:53:13;;;;;;;27.13;18.70;;;6.30;99.90;;;;;;5047645;28;20044;-71
2022/03/11 08:55:38;;;;;;;28.17;18.55;;;6.40;98.80;;;;;;5053636;28;20037;-70
2022/03/11 08:58:04;;;;;;;28.00;19.35;;;6.50;97.70;;;;;;5054611;28;20109;-70
2022/03/11 09:00:30;;;;;;;26.48;19.20;;;6.50;98.80;;;;;;5072355;28;20043;-71
2022/03/11 09:02:55;;;;;;;26.52;19.38;;;6.60;97.90;;;;;;5053429;28;20425;-71
2022/03/11 09:05:21;;;;;;;26.85;18.48;;;6.70;95.70;;;;;;5054218;28;20040;-71
2022/03/11 09:07:48;;;;;;;25.20;18.42;;;6.80;96.90;;;;;;5053907;28;20041;-71
2022/03/11 09:10:14;;;;;;;24.63;18.73;;;6.90;96.60;;;;;;5053479;28;20032;-72
2022/03/11 09:12:41;;;;;;;27.65;18.40;;;7.00;94.40;;;;;;5054351;28;20040;-71
2022/03/11 09:15:08;;;;;;;31.15;18.35;;;7.10;93.70;;;;;;5053306;28;20040;-71
2022/03/11 09:17:34;;;;;;;24.77;18.88;;;7.10;95.30;;;;;;5053635;28;20090;-70
2022/03/11 09:20:03;;;;;;;25.80;19.08;;;7.20;94.00;;;;;;5050193;28;20032;-71
2022/03/11 09:22:34;;;;;;;28.52;19.70;;;7.30;92.20;;;;;;5056726;28;20041;-70
2022/03/11 09:25:01;;;;;;;26.05;19.27;;;7.40;92.30;;;;;;5070418;28;20048;-70
2022/03/11 09:27:28;;;;;;;27.52;18.83;;;7.50;92.20;;;;;;5051058;28;20041;-70
2022/03/11 09:29:55;;;;;;;28.40;18.80;;;7.50;92.20;;;;;;5053427;28;20036;-71
2022/03/11 09:32:21;;;;;;;29.10;19.65;;;7.60;92.00;;;;;;5048769;28;20044;-70
2022/03/11 09:34:47;;;;;;;25.27;19.23;;;7.70;91.20;;;;;;5053609;28;20039;-72
2022/03/11 09:37:13;;;;;;;27.77;19.92;;;7.80;91.60;;;;;;5053403;28;20434;-71
2022/03/11 09:39:40;;;;;;;27.05;19.08;;;7.90;91.20;;;;;;5037638;28;20039;-70
2022/03/11 09:42:06;;;;;;;27.10;19.35;;;7.90;91.20;;;;;;5053556;28;20109;-72
2022/03/11 09:44:32;;;;;;;27.50;18.52;;;8.00;90.90;;;;;;5019341;28;20047;-70
2022/03/11 09:46:58;;;;;;;25.00;19.05;;;8.10;91.50;;;;;;5056728;28;20539;-70
2022/03/11 09:49:24;;;;;;;27.42;19.75;;;8.30;91.00;;;;;;5053380;28;20475;-70
2022/03/11 09:51:50;;;;;;;26.25;18.65;;;8.40;87.40;;;;;;5052434;28;20128;-71
2022/03/11 09:54:16;;;;;;;24.98;18.60;;;8.50;84.80;;;;;;5050066;28;20067;-70
2022/03/11 09:56:44;;;;;;;25.08;18.75;;;8.50;83.70;;;;;;5056995;28;20483;-69
2022/03/11 09:59:11;;;;;;;27.30;18.50;;;8.60;84.20;;;;;;5056433;28;20059;-70
2022/03/11 10:01:38;;;;;;;23.45;19.38;;;8.70;82.10;;;;;;5036624;28;20050;-71
2022/03/11 10:04:06;;;;;;;22.17;18.20;;;8.80;82.20;;;;;;5065839;28;20436;-70
2022/03/11 10:06:44;;;;;;;26.65;17.98;;;8.90;81.30;;;;;;5053091;28;20644;-71
2022/03/11 10:09:33;;;;;;;24.52;17.55;;;8.90;80.80;;;;;;5053882;28;20439;-71
2022/03/11 10:12:00;;;;;;;24.65;17.88;;;9.10;75.50;;;;;;5073029;28;20072;-70
2022/03/11 10:14:32;;;;;;;24.52;18.75;;;9.10;75.30;;;;;;5048077;28;20488;-70
2022/03/11 10:16:59;;;;;;;23.98;18.30;;;9.20;73.90;;;;;;5033631;28;20408;-72
2022/03/11 10:19:25;;;;;;;25.20;17.88;;;9.30;73.90;;;;;;5050030;28;20427;-71
2022/03/11 10:21:51;;;;;;;25.55;18.70;;;9.40;74.70;;;;;;5058162;28;20028;-71
2022/03/11 10:24:19;;;;;;;28.83;17.95;;;9.50;71.80;;;;;;5070505;28;20392;-71
2022/03/11 10:26:50;;;;;;;25.00;17.88;;;9.50;73.30;;;;;;5068690;28;22127;-71
2022/03/11 10:29:23;;;;;;;25.33;19.02;;;9.70;70.60;;;;;;5058945;28;20451;-70
2022/03/11 10:31:51;;;;;;;22.58;17.63;;;9.80;71.20;;;;;;5038014;28;20040;-71
2022/03/11 10:34:30;;;;;;;22.73;16.48;;;10.00;70.50;;;;;;5050398;28;20098;-71
2022/03/11 10:37:01;;;;;;;24.02;18.08;;;10.10;66.80;;;;;;5049802;28;20408;-70
2022/03/11 10:39:32;;;;;;;24.10;17.05;;;10.20;67.10;;;;;;5063968;28;20072;-71
2022/03/11 10:42:17;;;;;;;24.88;17.63;;;10.40;65.10;;;;;;5069156;28;20085;-72
2022/03/11 10:45:03;;;;;;;21.00;15.82;;;10.60;64.60;;;;;;5043957;28;20131;-72
2022/03/11 10:47:31;;;;;;;27.88;16.67;;;10.80;62.80;;;;;;5053612;28;20032;-70
2022/03/11 10:49:59;;;;;;;21.52;16.83;;;10.90;61.60;;;;;;5019998;28;20039;-71
2022/03/11 10:52:29;;;;;;;19.63;15.95;;;11.00;61.20;;;;;;5071047;28;20094;-71
2022/03/11 10:54:55;;;;;;;23.63;17.27;;;11.10;60.70;;;;;;5054938;28;20123;-69
2022/03/11 10:57:36;;;;;;;25.05;17.23;;;11.30;60.40;;;;;;5058728;28;20155;-70
2022/03/11 11:00:24;;;;;;;20.17;16.67;;;11.50;61.50;;;;;;5059479;28;20053;-70
2022/03/11 11:02:57;;;;;;;21.50;16.85;;;11.70;58.30;;;;;;5039497;28;20116;-71
2022/03/11 11:05:25;;;;;;;23.55;16.60;;;11.90;57.90;;;;;;5055589;28;20053;-70
2022/03/11 11:07:51;;;;;;;21.25;17.58;;;12.00;58.20;;;;;;5060247;28;20047;-68
2022/03/11 11:10:22;;;;;;;24.65;18.08;;;12.20;57.80;;;;;;5057001;28;20415;-70
2022/03/11 11:12:49;;;;;;;20.27;16.83;;;12.40;55.60;;;;;;5039385;28;20041;-70
2022/03/11 11:15:16;;;;;;;25.98;17.45;;;12.60;54.50;;;;;;5055312;28;20119;-70
2022/03/11 11:17:43;;;;;;;18.10;16.13;;;12.60;54.10;;;;;;5056126;28;20116;-71
2022/03/11 11:20:50;;;;;;;27.08;17.35;;;12.70;54.10;;;;;;5028403;28;20032;-71
2022/03/11 11:23:16;;;;;;;21.38;16.63;;;12.90;53.80;;;;;;5027264;28;20048;-70
2022/03/11 11:25:43;;;;;;;20.55;16.33;;;13.00;51.80;;;;;;5059584;28;20032;-70
2022/03/11 11:28:14;;;;;;;21.02;16.73;;;13.10;51.10;;;;;;5059152;28;20114;-70
2022/03/11 11:30:40;;;;;;;21.60;16.65;;;13.10;51.10;;;;;;5053500;28;20037;-69
2022/03/11 11:33:06;;;;;;;21.00;16.60;;;13.20;51.40;;;;;;5059124;28;20040;-71
2022/03/11 11:35:35;;;;;;;19.25;15.55;;;13.40;51.80;;;;;;5054720;28;20059;-71
2022/03/11 11:38:03;;;;;;;19.80;16.10;;;13.50;49.80;;;;;;5053620;28;20048;-70
2022/03/11 11:40:44;;;;;;;21.33;15.38;;;13.60;48.10;;;;;;5053634;28;20036;-71
2022/03/11 11:43:45;;;;;;;22.42;15.90;;;13.70;49.70;;;;;;5056098;28;20073;-71
2022/03/11 11:46:13;;;;;;;21.27;16.33;;;13.90;48.40;;;;;;5053774;28;20128;-70
2022/03/11 11:48:45;;;;;;;20.27;16.77;;;14.00;50.80;;;;;;5017160;28;20134;-71
2022/03/11 11:51:15;;;;;;;20.63;16.05;;;14.20;50.70;;;;;;5046153;28;20641;-71
2022/03/11 11:53:53;;;;;;;19.85;15.98;;;14.40;48.70;;;;;;5054602;28;20058;-71
2022/03/11 11:56:29;;;;;;;19.63;15.70;;;14.40;46.90;;;;;;5072687;28;20396;-71
2022/03/11 11:58:57;;;;;;;18.25;16.10;;;14.50;46.90;;;;;;5066192;28;20150;-71
2022/03/11 12:01:55;;;;;;;22.25;15.95;;;14.40;47.30;;;;;;5050462;28;20123;-71
2022/03/11 12:04:22;;;;;;;18.90;15.68;;;14.50;46.00;;;;;;5035938;28;20105;-72
2022/03/11 12:07:00;;;;;;;21.10;15.68;;;14.60;46.40;;;;;;5050495;28;20112;-72
2022/03/11 12:09:42;;;;;;;22.40;16.20;;;14.60;46.40;;;;;;5069333;28;20058;-72
2022/03/11 12:12:25;;;;;;;20.00;15.88;;;14.80;45.00;;;;;;5054376;28;20130;-72
2022/03/11 12:14:57;;;;;;;20.75;15.43;;;14.80;45.80;;;;;;5049470;28;20504;-72
2022/03/11 12:17:43;;;;;;;20.33;15.52;;;14.90;46.20;;;;;;5067775;28;20155;-72
2022/03/11 12:20:33;;;;;;;21.35;15.63;;;15.10;45.50;;;;;;5050990;28;20545;-72
2022/03/11 12:23:06;;;;;;;18.40;15.60;;;15.10;45.50;;;;;;5043486;28;20469;-72
2022/03/11 12:25:34;;;;;;;17.00;15.15;;;15.20;45.80;;;;;;5044723;28;20040;-72
2022/03/11 12:28:20;;;;;;;20.70;15.13;;;15.30;45.10;;;;;;5049420;28;20507;-72
2022/03/11 12:30:46;;;;;;;20.45;15.40;;;15.40;44.40;;;;;;5044035;28;20591;-72
2022/03/11 12:33:18;;;;;;;19.70;15.90;;;15.70;45.00;;;;;;5050156;28;20036;-72
2022/03/11 12:35:45;;;;;;;;;;;15.80;43.70;;;;;;5036633;28;20499;-71
2022/03/11 12:38:20;;;;;;;16.55;14.45;;;15.80;45.00;;;;;;5057062;28;19936;-73